sensor_id;sensor_type;location;lat;lon;timestamp;pressure;altitude;pressure_sealevel;temperature;humidity
35892;BME280;21993;42.672;23.296;2023-05-27T00:01:58;94790.56;;;17.91;70.25
35892;BME280;21993;42.672;23.296;2023-05-27T00:04:23;94798.03;;;17.88;71.09
35892;BME280;21993;42.672;23.296;2023-05-27T00:06:48;94806.91;;;17.80;71.28
35892;BME280;21993;42.672;23.296;2023-05-27T00:09:14;94802.16;;;17.67;72.03
35892;BME280;21993;42.672;23.296;2023-05-27T00:11:40;94817.09;;;17.68;72.23
35892;BME280;21993;42.672;23.296;2023-05-27T00:14:05;94809.63;;;17.64;72.37
35892;BME280;21993;42.672;23.296;2023-05-27T00:16:31;94810.13;;;17.67;72.54
35892;BME280;21993;42.672;23.296;2023-05-27T00:18:57;94801.63;;;17.49;73.14
35892;BME280;21993;42.672;23.296;2023-05-27T00:21:23;94799.94;;;17.48;73.35
35892;BME280;21993;42.672;23.296;2023-05-27T00:23:51;94804.28;;;17.49;73.36
35892;BME280;21993;42.672;23.296;2023-05-27T00:26:16;94802.09;;;17.53;73.54
35892;BME280;21993;42.672;23.296;2023-05-27T00:28:42;94804.78;;;17.44;73.54
35892;BME280;21993;42.672;23.296;2023-05-27T00:31:07;94805.47;;;17.38;73.66
35892;BME280;21993;42.672;23.296;2023-05-27T00:33:33;94803.44;;;17.17;74.31
35892;BME280;21993;42.672;23.296;2023-05-27T00:35:58;94792.53;;;17.12;74.16
35892;BME280;21993;42.672;23.296;2023-05-27T00:38:23;94788.19;;;17.20;73.32
35892;BME280;21993;42.672;23.296;2023-05-27T00:40:49;94779.72;;;17.24;72.95
35892;BME280;21993;42.672;23.296;2023-05-27T00:43:17;94783.75;;;17.12;72.90
35892;BME280;21993;42.672;23.296;2023-05-27T00:45:43;94778.84;;;17.01;73.61
35892;BME280;21993;42.672;23.296;2023-05-27T00:48:08;94770.53;;;17.04;73.62
35892;BME280;21993;42.672;23.296;2023-05-27T00:50:34;94772.00;;;17.06;73.52
35892;BME280;21993;42.672;23.296;2023-05-27T00:53:01;94762.00;;;17.16;72.99
35892;BME280;21993;42.672;23.296;2023-05-27T00:55:27;94758.69;;;17.14;73.14
35892;BME280;21993;42.672;23.296;2023-05-27T00:57:53;94764.94;;;17.22;72.77
35892;BME280;21993;42.672;23.296;2023-05-27T01:00:20;94752.34;;;17.24;71.98
35892;BME280;21993;42.672;23.296;2023-05-27T01:02:45;94738.56;;;17.28;70.93
35892;BME280;21993;42.672;23.296;2023-05-27T01:05:13;94739.38;;;17.29;70.83
35892;BME280;21993;42.672;23.296;2023-05-27T01:10:43;94735.66;;;17.38;71.16
35892;BME280;21993;42.672;23.296;2023-05-27T01:15:59;94730.22;;;17.31;73.01
35892;BME280;21993;42.672;23.296;2023-05-27T01:18:27;94722.44;;;17.30;73.45
35892;BME280;21993;42.672;23.296;2023-05-27T01:21:00;94722.13;;;17.33;73.84
35892;BME280;21993;42.672;23.296;2023-05-27T01:23:28;94711.50;;;17.33;74.14
35892;BME280;21993;42.672;23.296;2023-05-27T01:25:53;94702.03;;;17.30;74.05
35892;BME280;21993;42.672;23.296;2023-05-27T01:28:19;94702.22;;;17.29;73.39
35892;BME280;21993;42.672;23.296;2023-05-27T01:30:44;94702.88;;;17.31;72.85
35892;BME280;21993;42.672;23.296;2023-05-27T01:33:15;94698.22;;;17.33;73.33
35892;BME280;21993;42.672;23.296;2023-05-27T01:35:46;94700.06;;;17.32;73.98
35892;BME280;21993;42.672;23.296;2023-05-27T01:38:16;94691.91;;;17.34;73.37
35892;BME280;21993;42.672;23.296;2023-05-27T01:40:44;94691.25;;;17.32;72.67
35892;BME280;21993;42.672;23.296;2023-05-27T01:43:11;94685.78;;;17.33;73.06
35892;BME280;21993;42.672;23.296;2023-05-27T01:45:37;94695.22;;;17.36;72.32
35892;BME280;21993;42.672;23.296;2023-05-27T01:48:02;94689.28;;;17.34;72.38
35892;BME280;21993;42.672;23.296;2023-05-27T01:50:28;94697.22;;;17.34;72.79
35892;BME280;21993;42.672;23.296;2023-05-27T01:52:56;94698.88;;;17.35;71.91
35892;BME280;21993;42.672;23.296;2023-05-27T01:55:21;94700.88;;;17.33;72.33
35892;BME280;21993;42.672;23.296;2023-05-27T01:57:47;94692.75;;;17.34;72.68
35892;BME280;21993;42.672;23.296;2023-05-27T02:00:13;94703.53;;;17.33;72.55
35892;BME280;21993;42.672;23.296;2023-05-27T02:02:38;94705.00;;;17.35;72.34
35892;BME280;21993;42.672;23.296;2023-05-27T02:05:04;94703.06;;;17.29;72.62
35892;BME280;21993;42.672;23.296;2023-05-27T02:07:29;94701.72;;;17.33;73.05
35892;BME280;21993;42.672;23.296;2023-05-27T02:09:55;94698.75;;;17.28;73.84
35892;BME280;21993;42.672;23.296;2023-05-27T02:12:20;94712.19;;;17.27;73.05
35892;BME280;21993;42.672;23.296;2023-05-27T02:14:46;94708.41;;;17.21;72.91
35892;BME280;21993;42.672;23.296;2023-05-27T02:17:11;94700.44;;;17.21;72.52
35892;BME280;21993;42.672;23.296;2023-05-27T02:19:40;94698.81;;;17.20;72.90
35892;BME280;21993;42.672;23.296;2023-05-27T02:22:05;94703.66;;;17.16;72.78
35892;BME280;21993;42.672;23.296;2023-05-27T02:24:31;94706.13;;;17.18;72.40
35892;BME280;21993;42.672;23.296;2023-05-27T02:26:56;94702.78;;;17.24;72.83
35892;BME280;21993;42.672;23.296;2023-05-27T02:29:21;94702.97;;;17.14;73.18
35892;BME280;21993;42.672;23.296;2023-05-27T02:31:47;94714.94;;;17.10;73.20
35892;BME280;21993;42.672;23.296;2023-05-27T02:34:12;94704.53;;;17.09;73.14
35892;BME280;21993;42.672;23.296;2023-05-27T02:36:38;94705.16;;;17.11;73.67
35892;BME280;21993;42.672;23.296;2023-05-27T02:39:04;94713.63;;;17.06;74.01
35892;BME280;21993;42.672;23.296;2023-05-27T02:41:29;94707.00;;;17.10;74.21
35892;BME280;21993;42.672;23.296;2023-05-27T02:43:55;94712.16;;;17.04;74.82
35892;BME280;21993;42.672;23.296;2023-05-27T02:46:20;94704.53;;;17.09;74.73
35892;BME280;21993;42.672;23.296;2023-05-27T02:48:46;94709.25;;;16.99;75.44
35892;BME280;21993;42.672;23.296;2023-05-27T02:51:12;94710.69;;;17.01;75.45
35892;BME280;21993;42.672;23.296;2023-05-27T02:53:37;94714.66;;;17.05;75.64
35892;BME280;21993;42.672;23.296;2023-05-27T02:56:03;94712.72;;;16.99;76.02
35892;BME280;21993;42.672;23.296;2023-05-27T02:58:29;94707.56;;;16.98;76.07
35892;BME280;21993;42.672;23.296;2023-05-27T03:00:54;94706.91;;;16.96;76.39
35892;BME280;21993;42.672;23.296;2023-05-27T03:03:20;94701.28;;;16.99;75.89
35892;BME280;21993;42.672;23.296;2023-05-27T03:05:46;94700.78;;;16.95;75.81
35892;BME280;21993;42.672;23.296;2023-05-27T03:08:11;94711.88;;;16.99;75.64
35892;BME280;21993;42.672;23.296;2023-05-27T03:10:36;94709.34;;;17.05;75.81
35892;BME280;21993;42.672;23.296;2023-05-27T03:13:02;94712.72;;;16.99;75.90
35892;BME280;21993;42.672;23.296;2023-05-27T03:15:27;94707.22;;;17.01;75.34
35892;BME280;21993;42.672;23.296;2023-05-27T03:17:56;94707.41;;;16.99;75.72
35892;BME280;21993;42.672;23.296;2023-05-27T03:20:22;94704.75;;;16.99;75.66
35892;BME280;21993;42.672;23.296;2023-05-27T03:22:47;94705.41;;;17.01;75.90
35892;BME280;21993;42.672;23.296;2023-05-27T03:25:14;94709.25;;;16.99;75.94
35892;BME280;21993;42.672;23.296;2023-05-27T03:27:40;94715.38;;;16.99;75.27
35892;BME280;21993;42.672;23.296;2023-05-27T03:30:06;94721.50;;;17.00;75.38
35892;BME280;21993;42.672;23.296;2023-05-27T03:32:32;94710.06;;;16.99;75.01
35892;BME280;21993;42.672;23.296;2023-05-27T03:34:58;94720.31;;;17.02;74.39
35892;BME280;21993;42.672;23.296;2023-05-27T03:37:23;94717.19;;;16.99;74.50
35892;BME280;21993;42.672;23.296;2023-05-27T03:39:49;94722.13;;;17.02;74.82
35892;BME280;21993;42.672;23.296;2023-05-27T03:42:14;94732.59;;;16.95;74.75
35892;BME280;21993;42.672;23.296;2023-05-27T03:44:40;94729.78;;;16.97;74.97
35892;BME280;21993;42.672;23.296;2023-05-27T03:47:05;94721.00;;;16.96;74.58
35892;BME280;21993;42.672;23.296;2023-05-27T03:49:31;94732.59;;;16.95;74.31
35892;BME280;21993;42.672;23.296;2023-05-27T03:51:56;94736.09;;;16.96;74.22
35892;BME280;21993;42.672;23.296;2023-05-27T03:54:22;94728.94;;;16.96;74.29
35892;BME280;21993;42.672;23.296;2023-05-27T03:56:47;94729.59;;;16.98;74.20
35892;BME280;21993;42.672;23.296;2023-05-27T03:59:13;94729.13;;;16.95;74.14
35892;BME280;21993;42.672;23.296;2023-05-27T04:01:38;94729.59;;;16.98;73.61
35892;BME280;21993;42.672;23.296;2023-05-27T04:04:04;94724.66;;;16.95;73.74
35892;BME280;21993;42.672;23.296;2023-05-27T04:06:30;94728.94;;;16.96;73.67
35892;BME280;21993;42.672;23.296;2023-05-27T04:08:56;94730.97;;;16.94;73.84
35892;BME280;21993;42.672;23.296;2023-05-27T04:11:22;94723.81;;;16.95;73.95
35892;BME280;21993;42.672;23.296;2023-05-27T04:13:47;94733.25;;;16.97;74.30
35892;BME280;21993;42.672;23.296;2023-05-27T04:16:14;94724.47;;;16.97;74.47
35892;BME280;21993;42.672;23.296;2023-05-27T04:18:40;94727.81;;;16.99;73.62
35892;BME280;21993;42.672;23.296;2023-05-27T04:21:06;94720.66;;;16.99;74.10
35892;BME280;21993;42.672;23.296;2023-05-27T04:23:31;94717.84;;;17.01;73.82
35892;BME280;21993;42.672;23.296;2023-05-27T04:25:56;94728.25;;;17.02;73.99
35892;BME280;21993;42.672;23.296;2023-05-27T04:28:22;94725.28;;;16.97;74.47
35892;BME280;21993;42.672;23.296;2023-05-27T04:30:47;94720.13;;;17.04;74.66
35892;BME280;21993;42.672;23.296;2023-05-27T04:33:16;94730.56;;;17.05;73.72
35892;BME280;21993;42.672;23.296;2023-05-27T04:35:42;94732.69;;;17.10;73.40
35892;BME280;21993;42.672;23.296;2023-05-27T04:38:10;94724.91;;;17.08;73.58
35892;BME280;21993;42.672;23.296;2023-05-27T04:40:36;94744.13;;;17.10;73.74
35892;BME280;21993;42.672;23.296;2023-05-27T04:43:01;94739.66;;;17.11;73.78
35892;BME280;21993;42.672;23.296;2023-05-27T04:45:26;94737.47;;;17.14;73.58
35892;BME280;21993;42.672;23.296;2023-05-27T04:47:54;94738.28;;;17.15;73.57
35892;BME280;21993;42.672;23.296;2023-05-27T04:50:20;94736.63;;;17.14;73.33
35892;BME280;21993;42.672;23.296;2023-05-27T04:52:46;94743.91;;;17.20;73.02
35892;BME280;21993;42.672;23.296;2023-05-27T04:55:11;94743.53;;;17.23;72.57
35892;BME280;21993;42.672;23.296;2023-05-27T04:57:37;94737.72;;;17.28;72.39
35892;BME280;21993;42.672;23.296;2023-05-27T05:00:06;94736.34;;;17.32;71.87
35892;BME280;21993;42.672;23.296;2023-05-27T05:02:35;94746.28;;;17.38;71.99
35892;BME280;21993;42.672;23.296;2023-05-27T05:05:02;94743.44;;;17.39;71.77
35892;BME280;21993;42.672;23.296;2023-05-27T05:07:28;94742.78;;;17.37;71.89
35892;BME280;21993;42.672;23.296;2023-05-27T05:09:53;94741.66;;;17.32;72.34
35892;BME280;21993;42.672;23.296;2023-05-27T05:12:18;94737.38;;;17.31;72.56
35892;BME280;21993;42.672;23.296;2023-05-27T05:14:44;94739.00;;;17.32;72.77
35892;BME280;21993;42.672;23.296;2023-05-27T05:17:09;94742.28;;;17.42;71.49
35892;BME280;21993;42.672;23.296;2023-05-27T05:19:35;94739.97;;;17.39;71.71
35892;BME280;21993;42.672;23.296;2023-05-27T05:22:01;94747.78;;;17.40;71.47
35892;BME280;21993;42.672;23.296;2023-05-27T05:24:26;94742.09;;;17.43;71.28
35892;BME280;21993;42.672;23.296;2023-05-27T05:26:51;94749.38;;;17.50;71.37
35892;BME280;21993;42.672;23.296;2023-05-27T05:29:17;94746.34;;;17.53;71.24
35892;BME280;21993;42.672;23.296;2023-05-27T05:31:42;94752.47;;;17.53;71.22
35892;BME280;21993;42.672;23.296;2023-05-27T05:34:10;94755.78;;;17.55;71.82
35892;BME280;21993;42.672;23.296;2023-05-27T05:36:35;94760.91;;;17.57;71.25
35892;BME280;21993;42.672;23.296;2023-05-27T05:39:02;94754.31;;;17.53;70.89
35892;BME280;21993;42.672;23.296;2023-05-27T05:41:28;94750.28;;;17.57;71.25
35892;BME280;21993;42.672;23.296;2023-05-27T05:43:54;94754.38;;;17.67;71.06
35892;BME280;21993;42.672;23.296;2023-05-27T05:46:19;94759.16;;;17.72;71.33
35892;BME280;21993;42.672;23.296;2023-05-27T05:48:45;94761.34;;;17.91;70.40
35892;BME280;21993;42.672;23.296;2023-05-27T05:51:10;94760.41;;;17.84;70.62
35892;BME280;21993;42.672;23.296;2023-05-27T05:53:36;94763.72;;;17.86;70.97
35892;BME280;21993;42.672;23.296;2023-05-27T05:56:01;94759.09;;;17.80;71.24
35892;BME280;21993;42.672;23.296;2023-05-27T05:58:27;94773.97;;;17.89;70.92
35892;BME280;21993;42.672;23.296;2023-05-27T06:00:52;94765.66;;;17.92;70.88
35892;BME280;21993;42.672;23.296;2023-05-27T06:03:17;94772.78;;;17.92;71.08
35892;BME280;21993;42.672;23.296;2023-05-27T06:05:43;94776.09;;;17.94;71.35
35892;BME280;21993;42.672;23.296;2023-05-27T06:08:08;94771.59;;;17.94;71.32
35892;BME280;21993;42.672;23.296;2023-05-27T06:10:34;94768.31;;;17.92;71.60
35892;BME280;21993;42.672;23.296;2023-05-27T06:13:00;94769.06;;;18.01;71.72
35892;BME280;21993;42.672;23.296;2023-05-27T06:15:25;94767.56;;;17.98;71.59
35892;BME280;21993;42.672;23.296;2023-05-27T06:17:53;94781.41;;;17.94;72.42
35892;BME280;21993;42.672;23.296;2023-05-27T06:20:18;94772.25;;;17.96;72.89
35892;BME280;21993;42.672;23.296;2023-05-27T06:22:44;94777.56;;;17.96;72.89
35892;BME280;21993;42.672;23.296;2023-05-27T06:25:11;94771.41;;;17.96;73.34
35892;BME280;21993;42.672;23.296;2023-05-27T06:27:37;94781.34;;;18.02;73.38
35892;BME280;21993;42.672;23.296;2023-05-27T06:30:02;94790.44;;;18.08;72.66
35892;BME280;21993;42.672;23.296;2023-05-27T06:32:28;94785.19;;;18.14;72.22
35892;BME280;21993;42.672;23.296;2023-05-27T06:34:53;94787.59;;;18.09;72.06
35892;BME280;21993;42.672;23.296;2023-05-27T06:37:19;94788.88;;;18.13;71.81
35892;BME280;21993;42.672;23.296;2023-05-27T06:39:44;94778.34;;;18.20;71.49
35892;BME280;21993;42.672;23.296;2023-05-27T06:42:10;94785.13;;;18.22;71.40
35892;BME280;21993;42.672;23.296;2023-05-27T06:44:35;94780.28;;;18.26;70.99
35892;BME280;21993;42.672;23.296;2023-05-27T06:47:00;94796.59;;;18.23;70.97
35892;BME280;21993;42.672;23.296;2023-05-27T06:49:27;94790.75;;;18.27;70.54
35892;BME280;21993;42.672;23.296;2023-05-27T06:51:52;94787.44;;;18.25;71.19
35892;BME280;21993;42.672;23.296;2023-05-27T06:54:18;94790.19;;;18.32;71.08
35892;BME280;21993;42.672;23.296;2023-05-27T06:56:44;94795.34;;;18.34;71.18
35892;BME280;21993;42.672;23.296;2023-05-27T06:59:09;94790.28;;;18.39;71.29
35892;BME280;21993;42.672;23.296;2023-05-27T07:01:35;94796.09;;;18.42;71.17
35892;BME280;21993;42.672;23.296;2023-05-27T07:04:00;94795.72;;;18.45;71.91
35892;BME280;21993;42.672;23.296;2023-05-27T07:06:26;94795.72;;;18.45;70.79
35892;BME280;21993;42.672;23.296;2023-05-27T07:08:51;94791.22;;;18.46;70.97
35892;BME280;21993;42.672;23.296;2023-05-27T07:11:17;94798.00;;;18.48;71.18
35892;BME280;21993;42.672;23.296;2023-05-27T07:13:42;94794.91;;;18.60;71.21
35892;BME280;21993;42.672;23.296;2023-05-27T07:16:07;94792.78;;;18.55;71.46
35892;BME280;21993;42.672;23.296;2023-05-27T07:18:33;94798.66;;;18.50;71.69
35892;BME280;21993;42.672;23.296;2023-05-27T07:20:58;94800.38;;;18.58;70.93
35892;BME280;21993;42.672;23.296;2023-05-27T07:23:24;94798.47;;;18.52;70.84
35892;BME280;21993;42.672;23.296;2023-05-27T07:25:49;94800.13;;;18.53;70.96
35892;BME280;21993;42.672;23.296;2023-05-27T07:28:15;94804.53;;;18.61;71.25
35892;BME280;21993;42.672;23.296;2023-05-27T07:30:41;94792.19;;;18.68;70.73
35892;BME280;21993;42.672;23.296;2023-05-27T07:33:06;94797.00;;;18.64;70.69
35892;BME280;21993;42.672;23.296;2023-05-27T07:35:31;94806.19;;;18.62;70.12
35892;BME280;21993;42.672;23.296;2023-05-27T07:37:57;94802.88;;;18.60;70.33
35892;BME280;21993;42.672;23.296;2023-05-27T07:40:22;94803.31;;;18.63;70.08
35892;BME280;21993;42.672;23.296;2023-05-27T07:42:48;94798.72;;;18.57;70.36
35892;BME280;21993;42.672;23.296;2023-05-27T07:45:13;94804.72;;;18.59;69.88
35892;BME280;21993;42.672;23.296;2023-05-27T07:47:38;94797.50;;;18.68;68.88
35892;BME280;21993;42.672;23.296;2023-05-27T07:50:04;94804.97;;;18.64;69.51
35892;BME280;21993;42.672;23.296;2023-05-27T07:52:30;94793.47;;;18.72;68.26
35892;BME280;21993;42.672;23.296;2023-05-27T07:54:55;94799.59;;;18.72;68.16
35892;BME280;21993;42.672;23.296;2023-05-27T07:57:22;94801.72;;;18.77;67.16
35892;BME280;21993;42.672;23.296;2023-05-27T07:59:49;94808.50;;;18.79;66.33
35892;BME280;21993;42.672;23.296;2023-05-27T08:02:15;94796.03;;;18.80;66.02
35892;BME280;21993;42.672;23.296;2023-05-27T08:04:40;94808.94;;;18.83;66.22
35892;BME280;21993;42.672;23.296;2023-05-27T08:07:08;94809.81;;;18.83;66.48
35892;BME280;21993;42.672;23.296;2023-05-27T08:09:34;94804.09;;;18.87;66.68
35892;BME280;21993;42.672;23.296;2023-05-27T08:11:59;94812.00;;;18.95;66.43
35892;BME280;21993;42.672;23.296;2023-05-27T08:14:25;94809.63;;;18.85;66.22
35892;BME280;21993;42.672;23.296;2023-05-27T08:16:53;94810.69;;;18.91;64.62
35892;BME280;21993;42.672;23.296;2023-05-27T08:19:18;94811.72;;;18.90;65.19
35892;BME280;21993;42.672;23.296;2023-05-27T08:21:44;94809.78;;;18.98;64.88
35892;BME280;21993;42.672;23.296;2023-05-27T08:24:09;94809.78;;;18.98;64.78
35892;BME280;21993;42.672;23.296;2023-05-27T08:26:34;94808.75;;;18.99;64.23
35892;BME280;21993;42.672;23.296;2023-05-27T08:29:00;94809.97;;;18.97;64.51
35892;BME280;21993;42.672;23.296;2023-05-27T08:31:26;94811.16;;;18.94;64.81
35892;BME280;21993;42.672;23.296;2023-05-27T08:33:52;94811.63;;;18.98;65.19
35892;BME280;21993;42.672;23.296;2023-05-27T08:36:17;94810.59;;;18.99;65.99
35892;BME280;21993;42.672;23.296;2023-05-27T08:38:44;94812.00;;;19.09;65.21
35892;BME280;21993;42.672;23.296;2023-05-27T08:41:10;94817.41;;;19.01;65.10
35892;BME280;21993;42.672;23.296;2023-05-27T08:43:35;94817.84;;;18.90;64.48
35892;BME280;21993;42.672;23.296;2023-05-27T08:46:01;94815.00;;;18.92;63.96
35892;BME280;21993;42.672;23.296;2023-05-27T08:48:27;94809.44;;;18.87;64.45
35892;BME280;21993;42.672;23.296;2023-05-27T08:50:52;94806.03;;;18.93;64.31
35892;BME280;21993;42.672;23.296;2023-05-27T08:53:19;94813.44;;;18.97;64.68
35892;BME280;21993;42.672;23.296;2023-05-27T08:55:46;94809.34;;;18.95;64.70
35892;BME280;21993;42.672;23.296;2023-05-27T08:58:13;94801.34;;;18.95;64.76
35892;BME280;21993;42.672;23.296;2023-05-27T09:00:39;94807.31;;;18.97;64.73
35892;BME280;21993;42.672;23.296;2023-05-27T09:03:05;94799.31;;;19.11;64.45
35892;BME280;21993;42.672;23.296;2023-05-27T09:05:30;94807.75;;;19.15;63.85
35892;BME280;21993;42.672;23.296;2023-05-27T09:07:56;94806.91;;;19.15;64.12
35892;BME280;21993;42.672;23.296;2023-05-27T09:10:21;94803.44;;;19.14;63.84
35892;BME280;21993;42.672;23.296;2023-05-27T09:12:46;94797.09;;;19.15;64.02
35892;BME280;21993;42.672;23.296;2023-05-27T09:15:13;94801.28;;;19.24;63.84
35892;BME280;21993;42.672;23.296;2023-05-27T09:17:43;94799.41;;;19.18;64.38
35892;BME280;21993;42.672;23.296;2023-05-27T09:20:09;94802.41;;;19.15;64.39
35892;BME280;21993;42.672;23.296;2023-05-27T09:22:36;94794.44;;;19.15;65.12
35892;BME280;21993;42.672;23.296;2023-05-27T09:25:02;94797.47;;;19.27;64.83
35892;BME280;21993;42.672;23.296;2023-05-27T09:27:29;94798.00;;;19.22;65.32
35892;BME280;21993;42.672;23.296;2023-05-27T09:29:55;94791.94;;;19.28;64.57
35892;BME280;21993;42.672;23.296;2023-05-27T09:32:28;94788.53;;;19.34;63.70
35892;BME280;21993;42.672;23.296;2023-05-27T09:34:57;94788.78;;;19.39;63.80
35892;BME280;21993;42.672;23.296;2023-05-27T09:37:26;94795.22;;;19.45;63.89
35892;BME280;21993;42.672;23.296;2023-05-27T09:40:00;94788.31;;;19.51;62.93
35892;BME280;21993;42.672;23.296;2023-05-27T09:42:59;94788.56;;;19.56;62.83
35892;BME280;21993;42.672;23.296;2023-05-27T09:45:24;94777.41;;;19.46;63.19
35892;BME280;21993;42.672;23.296;2023-05-27T09:47:52;94787.78;;;19.40;63.98
35892;BME280;21993;42.672;23.296;2023-05-27T09:50:18;94783.09;;;19.43;64.21
35892;BME280;21993;42.672;23.296;2023-05-27T09:52:45;94779.66;;;19.49;64.30
35892;BME280;21993;42.672;23.296;2023-05-27T09:55:12;94777.91;;;19.56;63.68
35892;BME280;21993;42.672;23.296;2023-05-27T09:57:41;94777.28;;;19.54;64.43
35892;BME280;21993;42.672;23.296;2023-05-27T10:00:08;94780.13;;;19.52;64.83
35892;BME280;21993;42.672;23.296;2023-05-27T10:02:37;94780.56;;;19.56;65.31
35892;BME280;21993;42.672;23.296;2023-05-27T10:05:05;94777.81;;;19.64;64.86
35892;BME280;21993;42.672;23.296;2023-05-27T10:07:38;94786.19;;;19.61;64.51
35892;BME280;21993;42.672;23.296;2023-05-27T10:10:08;94783.03;;;19.72;64.66
35892;BME280;21993;42.672;23.296;2023-05-27T10:12:36;94779.59;;;19.78;62.89
35892;BME280;21993;42.672;23.296;2023-05-27T10:15:03;94769.19;;;19.83;63.49
35892;BME280;21993;42.672;23.296;2023-05-27T10:17:40;94777.84;;;19.85;63.39
35892;BME280;21993;42.672;23.296;2023-05-27T10:20:07;94773.19;;;19.94;63.55
35892;BME280;21993;42.672;23.296;2023-05-27T10:22:53;94768.28;;;20.19;61.31
35892;BME280;21993;42.672;23.296;2023-05-27T10:25:18;94775.63;;;20.17;62.14
35892;BME280;21993;42.672;23.296;2023-05-27T10:27:45;94765.28;;;20.29;61.13
35892;BME280;21993;42.672;23.296;2023-05-27T10:30:14;94763.03;;;20.32;61.07
35892;BME280;21993;42.672;23.296;2023-05-27T10:32:44;94765.06;;;20.30;62.53
35892;BME280;21993;42.672;23.296;2023-05-27T10:35:12;94761.66;;;20.43;62.34
35892;BME280;21993;42.672;23.296;2023-05-27T10:37:38;94755.56;;;20.77;59.55
35892;BME280;21993;42.672;23.296;2023-05-27T10:40:05;94758.19;;;20.70;60.22
35892;BME280;21993;42.672;23.296;2023-05-27T10:42:31;94749.22;;;20.78;60.02
35892;BME280;21993;42.672;23.296;2023-05-27T10:45:09;94750.84;;;20.79;61.13
35892;BME280;21993;42.672;23.296;2023-05-27T10:47:41;94748.66;;;20.89;60.14
35892;BME280;21993;42.672;23.296;2023-05-27T10:50:10;94753.19;;;21.02;59.70
35892;BME280;21993;42.672;23.296;2023-05-27T10:52:37;94735.41;;;21.16;58.08
35892;BME280;21993;42.672;23.296;2023-05-27T10:55:04;94731.50;;;21.12;58.34
35892;BME280;21993;42.672;23.296;2023-05-27T10:57:30;94731.38;;;21.33;58.58
35892;BME280;21993;42.672;23.296;2023-05-27T11:00:01;94735.13;;;21.45;58.47
35892;BME280;21993;42.672;23.296;2023-05-27T11:02:30;94736.34;;;21.49;58.78
35892;BME280;21993;42.672;23.296;2023-05-27T11:05:00;94730.41;;;21.47;58.22
35892;BME280;21993;42.672;23.296;2023-05-27T11:07:26;94722.59;;;21.52;57.17
35892;BME280;21993;42.672;23.296;2023-05-27T11:09:53;94725.25;;;21.52;57.51
35892;BME280;21993;42.672;23.296;2023-05-27T11:12:20;94718.28;;;21.51;57.67
35892;BME280;21993;42.672;23.296;2023-05-27T11:14:48;94722.00;;;21.57;57.26
35892;BME280;21993;42.672;23.296;2023-05-27T11:17:14;94724.69;;;21.63;56.51
35892;BME280;21993;42.672;23.296;2023-05-27T11:19:41;94719.53;;;21.55;56.83
35892;BME280;21993;42.672;23.296;2023-05-27T11:22:10;94711.50;;;21.55;56.07
35892;BME280;21993;42.672;23.296;2023-05-27T11:24:36;94715.63;;;21.45;57.69
35892;BME280;21993;42.672;23.296;2023-05-27T11:29:34;94708.63;;;21.57;56.67
35892;BME280;21993;42.672;23.296;2023-05-27T11:32:00;94708.44;;;21.58;56.59
35892;BME280;21993;42.672;23.296;2023-05-27T11:34:27;94710.69;;;21.55;56.61
35892;BME280;21993;42.672;23.296;2023-05-27T11:36:53;94701.22;;;21.52;56.19
35892;BME280;21993;42.672;23.296;2023-05-27T11:39:18;94697.97;;;21.63;56.37
35892;BME280;21993;42.672;23.296;2023-05-27T11:41:51;94692.56;;;21.44;58.10
35892;BME280;21993;42.672;23.296;2023-05-27T11:44:21;94685.59;;;21.43;58.83
35892;BME280;21993;42.672;23.296;2023-05-27T11:46:48;94681.72;;;21.65;57.26
35892;BME280;21993;42.672;23.296;2023-05-27T11:49:15;94683.34;;;21.59;58.38
35892;BME280;21993;42.672;23.296;2023-05-27T11:51:43;94682.97;;;21.82;54.26
35892;BME280;21993;42.672;23.296;2023-05-27T11:56:47;94674.34;;;21.74;55.42
35892;BME280;21993;42.672;23.296;2023-05-27T11:59:12;94679.66;;;21.67;54.68
35892;BME280;21993;42.672;23.296;2023-05-27T12:01:39;94672.28;;;21.89;54.92
35892;BME280;21993;42.672;23.296;2023-05-27T12:04:05;94674.75;;;22.04;54.90
35892;BME280;21993;42.672;23.296;2023-05-27T12:06:31;94670.00;;;22.06;54.15
35892;BME280;21993;42.672;23.296;2023-05-27T12:08:56;94677.22;;;21.99;52.78
35892;BME280;21993;42.672;23.296;2023-05-27T12:11:22;94658.72;;;22.10;52.84
35892;BME280;21993;42.672;23.296;2023-05-27T12:13:48;94652.53;;;22.16;52.79
35892;BME280;21993;42.672;23.296;2023-05-27T12:16:13;94659.94;;;22.08;53.26
35892;BME280;21993;42.672;23.296;2023-05-27T12:18:38;94652.94;;;22.00;54.97
35892;BME280;21993;42.672;23.296;2023-05-27T12:21:06;94646.16;;;21.91;56.12
35892;BME280;21993;42.672;23.296;2023-05-27T12:23:32;94648.00;;;22.04;55.20
35892;BME280;21993;42.672;23.296;2023-05-27T12:25:57;94641.63;;;22.05;54.65
35892;BME280;21993;42.672;23.296;2023-05-27T12:28:22;94641.84;;;22.23;53.71
35892;BME280;21993;42.672;23.296;2023-05-27T12:30:48;94643.09;;;22.14;54.99
35892;BME280;21993;42.672;23.296;2023-05-27T12:33:14;94626.59;;;22.37;54.24
35892;BME280;21993;42.672;23.296;2023-05-27T12:35:39;94629.25;;;22.37;51.91
35892;BME280;21993;42.672;23.296;2023-05-27T12:38:05;94633.97;;;22.35;53.09
35892;BME280;21993;42.672;23.296;2023-05-27T12:40:30;94626.94;;;22.54;52.54
35892;BME280;21993;42.672;23.296;2023-05-27T12:42:55;94613.00;;;22.38;53.46
35892;BME280;21993;42.672;23.296;2023-05-27T12:45:21;94609.66;;;22.50;52.80
35892;BME280;21993;42.672;23.296;2023-05-27T12:47:48;94612.47;;;22.68;52.79
35892;BME280;21993;42.672;23.296;2023-05-27T12:50:14;94606.94;;;22.63;53.40
35892;BME280;21993;42.672;23.296;2023-05-27T12:52:40;94605.31;;;22.62;52.66
35892;BME280;21993;42.672;23.296;2023-05-27T12:55:12;94596.56;;;22.80;51.56
35892;BME280;21993;42.672;23.296;2023-05-27T12:57:37;94611.00;;;22.72;52.36